Data for 02/02/2015

Time Sea-Level Adjusted Pressure Absolute Pressure Temperature Relative Humidity Dew Point Precipitation   
(mb) (inHg) (mb) (inHg) (C) (F) (%) (C) (F) (mm) (in)
09:35 1019 30.09 848 25.04 2.2 36 57 -5.4 22.2 0 0
09:40 1019 30.09 848 25.04 2.3 36.2 58 -5 22.9 0 0
09:45 1019 30.09 848 25.04 2.4 36.3 58 -5 23 0 0
09:50 1019 30.09 848 25.04 2.5 36.4 58 -5 23 0 0
09:55 1019 30.09 848 25.04 2.7 36.9 55 -5.5 22.2 0 0
10:00 1019 30.09 848 25.04 3.1 37.6 55 -5.1 22.8 0 0
10:05 1019 30.09 848 25.04 3.4 38.1 55 -4.9 23.1 0 0
10:10 1019 30.09 848 25.04 3.4 38.1 53 -5.3 22.4 0 0
10:15 1019 30.09 848 25.04 3.5 38.2 53 -5.3 22.5 0 0
10:20 1019 30.09 848 25.04 3.6 38.4 53 -5.2 22.6 0 0
10:25 1019 30.09 848 25.04 3.9 39 53 -4.8 23.4 0 0
10:30 1019 30.09 848 25.04 4 39.2 53 -4.7 23.5 0 0
10:35 1019 30.09 848 25.04 4.1 39.4 53 -4.6 23.7 0 0
10:40 1019 30.09 848 25.04 4.2 39.5 54 -4.3 24.2 0 0
10:45 1019 30.09 848 25.04 4.2 39.6 54 -4.3 24.2 0 0
10:50 1019 30.09 848 25.04 4.3 39.7 54 -4.2 24.5 0 0
10:55 1019 30.09 848 25.04 4.2 39.6 55 -4 24.7 0 0
11:00 1019 30.09 848 25.04 4 39.2 56 -4 24.8 0 0
11:05 1019 30.09 848 25.04 3.9 39.1 57 -3.8 25.2 0 0
11:10 1019 30.09 848 25.04 3.8 38.8 57 -3.9 25 0 0
11:15 1018 30.06 848 25.04 3.7 38.6 57 -4.1 24.7 0 0
11:20 1018 30.06 848 25.04 4 39.1 56 -4.1 24.6 0 0
11:25 1018 30.06 848 25.04 3.9 39.1 54 -4.5 23.8 0 0
11:30 1018 30.06 847 25.01 4.5 40 52 -4.5 23.9 0 0
11:35 1018 30.06 847 25.01 4.5 40.1 52 -4.5 23.9 0 0
11:40 1018 30.06 847 25.01 4.6 40.3 52 -4.5 23.9 0 0
11:45 1018 30.06 847 25.01 4.7 40.5 51 -4.5 23.9 0 0
11:50 1018 30.06 847 25.01 4.7 40.5 53 -4.1 24.6 0 0
11:55 1018 30.06 847 25.01 4.8 40.6 50 -4.8 23.4 0 0
12:00 1018 30.06 847 25.01 4.9 40.9 49 -4.8 23.4 0 0
12:05 1018 30.06 847 25.01 5.1 41.1 50 -4.5 23.9 0 0
12:10 1018 30.06 847 25.01 5.3 41.5 47 -5.1 22.8 0 0
12:15 1017 30.03 847 25.01 5.3 41.6 47 -5.2 22.6 0 0
12:20 1017 30.03 847 25.01 5.4 41.7 45 -5.6 21.8 0 0
12:25 1017 30.03 846 24.98 5.5 41.9 49 -4.4 24.1 0 0
12:30 1017 30.03 846 24.98 5.4 41.8 48 -4.6 23.7 0 0
12:35 1017 30.03 846 24.98 5.2 41.4 47 -5.3 22.5 0 0
12:40 1017 30.03 846 24.98 5.1 41.1 47 -5.4 22.3 0 0
12:45 1017 30.03 846 24.98 5 41 51 -4.2 24.4 0 0
12:50 1017 30.03 846 24.98 5 40.9 50 -4.7 23.5 0 0
12:55 1017 30.03 846 24.98 5 41.1 50 -4.6 23.7 0 0
13:00 1016 30 846 24.98 5 41 47 -5.5 22.1 0 0
13:05 1016 30 845 24.95 5 41 52 -4 24.8 0 0
13:10 1016 30 845 24.95 4.8 40.7 48 -5.2 22.6 0 0
13:15 1016 30 845 24.95 4.9 40.9 51 -4.4 24.1 0 0
13:20 1016 30 845 24.95 5 41 48 -5.2 22.7 0 0
13:25 1016 30 845 24.95 5.1 41.1 51 -4.3 24.2 0 0
13:30 1016 30 845 24.95 5.2 41.3 46 -5.6 22 0 0
13:35 1016 30 845 24.95 5.1 41.2 51 -4.2 24.5 0 0
13:40 1016 30 845 24.95 5.3 41.5 47 -5 22.9 0 0
13:45 1016 30 845 24.95 5.3 41.6 44 -5.8 21.5 0 0
13:50 1016 30 845 24.95 5.5 42 45 -5.4 22.3 0 0
13:55 1016 30 845 24.95 5.6 42 45 -5.4 22.2 0 0
14:00 1016 30 845 24.95 5.7 42.3 45 -5.4 22.3 0 0
14:05 1015 29.97 845 24.95 5.7 42.2 41 -6.5 20.2 0 0
14:10 1015 29.97 845 24.95 5.9 42.6 40 -6.6 20.1 0 0
14:15 1015 29.97 844 24.92 5.9 42.5 42 -6.2 20.8 0 0
14:20 1015 29.97 844 24.92 6 42.8 40 -6.7 20 0 0
14:25 1015 29.97 844 24.92 6 42.8 40 -6.5 20.3 0 0
14:30 1015 29.97 844 24.92 5.8 42.5 39 -7 19.4 0 0
14:35 1015 29.97 844 24.92 5.9 42.5 41 -6.6 20.2 0 0